HOG weather

Frank Pais International Airport
Holguin, HolguĂ­n, Cuba

Public forecast

Using degrees Celsius for public forecast. Weather courtesy of forecast.io.

Current aviation weather report (METAR) for Frank Pais International Airport

Retrieved 2019/10/19 07:50 UTC (19 minutes ago):

MUHG 190750Z VRB01KT 7000 VCFG SKC 22/22 Q1012

Aviation forecast (TAF) for Frank Pais International Airport

Retrieved 2019/10/19 06:03 UTC (2 hours ago):

TAF MUHG 190500Z 1906/2006 VRB03KT 9000 FEW020 TEMPO 1908/1914 3000 BR